Welcome to Northern Hawkes Bay. New Zealand.
PWS Header
      nz Flag



Hit Counter


W3C Valid W3C Valid logo


    Wairoa

Select any of the Stations below to visit their websites.










Historic Data from Weather Underground
Select the location of interest below. Wairoa is the default. Please have patience, this Data is slow to load in.
Northern Hawkes Bay Historical Data
Daily Summary for May 14, 2017 Units:  Metric    English   Both
« Previous Day
Next Day »
Daily Weekly Monthly Yearly Custom
  High: Low: Average:
Temperature: 15.7 °C 5.6 °C 10.5 °C
Dew Point: 8.1 °C 5.3 °C 6.4 °C
Humidity: 99% 53% 77%
Wind Speed: 28.0km/h 0.0km/h 4.4km/h
Wind Gust: 40.4km/h - -
Wind- - West
Pressure: 1025.6 hPa 1022.2 hPa -
Precipitation: 0.0 mm    
Historical Graphs
 
 
Tabular Data for May 14, 2017
Time Temperature Dew Point Pressure Wind Wind Speed Wind Gust Humidity Rainfall Rate (Hourly) solar
00:00 10.9 °C 8.1 °C 1022.2 hPa SW 14.8 km/h 31.7 km/h 83% 0.0 mm 0 W/m2
00:06 10.9 °C 8.1 °C 1022.6 hPa WSW 18.3 km/h 31.7 km/h 83% 0.0 mm 0 W/m2
00:11 10.9 °C 7.9 °C 1022.6 hPa WSW 12.2 km/h 30.6 km/h 82% 0.0 mm 0 W/m2
00:16 10.9 °C 8.1 °C 1022.6 hPa SW 20.9 km/h 37.8 km/h 83% 0.0 mm 0 W/m2
00:21 10.9 °C 7.9 °C 1022.2 hPa SW 14.8 km/h 37.8 km/h 82% 0.0 mm 0 W/m2
00:26 10.9 °C 8.1 °C 1022.6 hPa WSW 19.5 km/h 35.6 km/h 83% 0.0 mm 0 W/m2
00:31 10.9 °C 8.1 °C 1022.6 hPa West 28.0 km/h 34.3 km/h 83% 0.0 mm 0 W/m2
00:36 10.8 °C 8.1 °C 1022.6 hPa WSW 14.8 km/h 34.3 km/h 83% 0.0 mm 0 W/m2
00:41 10.8 °C 8.1 °C 1022.6 hPa WSW 21.9 km/h 34.3 km/h 83% 0.0 mm 0 W/m2
00:46 10.8 °C 8.1 °C 1022.6 hPa WSW 14.8 km/h 34.3 km/h 83% 0.0 mm 0 W/m2
00:51 10.7 °C 7.9 °C 1022.6 hPa SW 23.3 km/h 35.6 km/h 83% 0.0 mm 0 W/m2
00:56 10.7 °C 7.9 °C 1022.2 hPa WSW 15.8 km/h 35.6 km/h 83% 0.0 mm 0 W/m2
01:01 10.7 °C 7.9 °C 1022.2 hPa WSW 14.8 km/h 30.6 km/h 83% 0.0 mm 0 W/m2
01:06 10.7 °C 7.9 °C 1022.6 hPa WSW 13.4 km/h 31.7 km/h 83% 0.0 mm 0 W/m2
01:11 10.7 °C 7.9 °C 1022.6 hPa WSW 24.5 km/h 40.4 km/h 83% 0.0 mm 0 W/m2
01:16 10.8 °C 8.1 °C 1022.6 hPa WSW 20.9 km/h 40.4 km/h 83% 0.0 mm 0 W/m2
01:21 10.8 °C 8.1 °C 1022.6 hPa WSW 13.4 km/h 29.4 km/h 83% 0.0 mm 0 W/m2
01:26 10.8 °C 7.8 °C 1022.6 hPa WSW 14.8 km/h 29.4 km/h 82% 0.0 mm 0 W/m2
01:31 10.9 °C 7.9 °C 1022.6 hPa SW 19.5 km/h 29.4 km/h 82% 0.0 mm 0 W/m2
01:36 10.9 °C 7.9 °C 1022.6 hPa WSW 23.3 km/h 30.6 km/h 82% 0.0 mm 0 W/m2
01:41 11.0 °C 7.7 °C 1022.6 hPa WSW 17.2 km/h 30.6 km/h 80% 0.0 mm 0 W/m2
01:46 11.0 °C 7.5 °C 1022.2 hPa SW 18.3 km/h 30.6 km/h 79% 0.0 mm 0 W/m2
01:51 11.0 °C 7.7 °C 1022.6 hPa SW 17.2 km/h 33.1 km/h 80% 0.0 mm 0 W/m2
01:56 10.9 °C 8.1 °C 1022.2 hPa WSW 14.8 km/h 33.1 km/h 83% 0.0 mm 0 W/m2
02:01 10.7 °C 7.9 °C 1022.2 hPa WSW 18.3 km/h 28.0 km/h 83% 0.0 mm 0 W/m2
02:06 10.6 °C 7.8 °C 1022.6 hPa SW 11.1 km/h 28.0 km/h 83% 0.0 mm 0 W/m2
02:11 10.5 °C 7.7 °C 1022.6 hPa WSW 6.1 km/h 28.0 km/h 83% 0.0 mm 0 W/m2
02:16 10.6 °C 7.8 °C 1022.6 hPa WSW 13.4 km/h 27.0 km/h 83% 0.0 mm 0 W/m2
02:21 10.6 °C 7.8 °C 1022.6 hPa WSW 9.7 km/h 27.0 km/h 83% 0.0 mm 0 W/m2
02:26 10.5 °C 7.7 °C 1022.6 hPa WSW 6.1 km/h 19.5 km/h 83% 0.0 mm 0 W/m2
02:31 10.5 °C 7.7 °C 1022.6 hPa West 2.6 km/h 18.3 km/h 83% 0.0 mm 0 W/m2
02:36 10.6 °C 7.7 °C 1022.6 hPa West 12.2 km/h 21.9 km/h 82% 0.0 mm 0 W/m2
02:40 10.8 °C 7.5 °C 1022.2 hPa WSW 11.1 km/h 25.6 km/h 80% 0.0 mm 0 W/m2
02:46 10.9 °C 7.2 °C 1022.2 hPa WSW 24.5 km/h 30.6 km/h 78% 0.0 mm 0 W/m2
02:51 11.0 °C 6.9 °C 1022.6 hPa WSW 14.8 km/h 31.7 km/h 76% 0.0 mm 0 W/m2
02:56 11.0 °C 6.9 °C 1022.6 hPa WSW 13.4 km/h 31.7 km/h 76% 0.0 mm 0 W/m2
03:01 11.0 °C 6.9 °C 1022.6 hPa WSW 15.8 km/h 29.4 km/h 76% 0.0 mm 0 W/m2
03:06 11.0 °C 6.9 °C 1022.2 hPa WSW 8.7 km/h 29.4 km/h 76% 0.0 mm 0 W/m2
03:12 10.9 °C 7.1 °C 1022.6 hPa West 5.0 km/h 25.6 km/h 77% 0.0 mm 0 W/m2
03:17 10.9 °C 7.1 °C 1022.6 hPa WSW 14.8 km/h 23.3 km/h 77% 0.0 mm 0 W/m2
03:21 10.9 °C 7.1 °C 1022.6 hPa WSW 11.1 km/h 23.3 km/h 77% 0.0 mm 0 W/m2
03:27 10.8 °C 7.1 °C 1022.6 hPa WSW 17.2 km/h 23.3 km/h 78% 0.0 mm 0 W/m2
03:32 10.7 °C 7.0 °C 1022.6 hPa WSW 6.1 km/h 23.3 km/h 78% 0.0 mm 0 W/m2
03:37 10.6 °C 7.5 °C 1022.6 hPa Calm   23.3 km/h 81% 0.0 mm 0 W/m2
03:42 10.6 °C 7.5 °C 1022.6 hPa WSW 7.2 km/h 13.4 km/h 81% 0.0 mm 0 W/m2
03:47 10.5 °C 7.4 °C 1022.2 hPa Calm   13.4 km/h 81% 0.0 mm 0 W/m2
03:52 10.4 °C 7.3 °C 1022.6 hPa Calm   11.1 km/h 81% 0.0 mm 0 W/m2
03:57 10.2 °C 6.9 °C 1022.2 hPa Calm   9.7 km/h 80% 0.0 mm 0 W/m2
04:02 10.1 °C 6.6 °C 1022.2 hPa Calm   9.7 km/h 79% 0.0 mm 0 W/m2
04:06 10.1 °C 6.6 °C 1022.6 hPa Calm   6.1 km/h 79% 0.0 mm 0 W/m2
04:12 10.0 °C 6.6 °C 1022.2 hPa Calm   6.1 km/h 79% 0.0 mm 0 W/m2
04:13 10.0 °C 6.6 °C 1022.2 hPa Calm   6.1 km/h 79% 0.0 mm 0 W/m2
04:18 9.9 °C 6.6 °C 1022.2 hPa Calm   2.6 km/h 80% 0.0 mm 0 W/m2
04:23 9.8 °C 6.3 °C 1022.2 hPa Calm   5.0 km/h 79% 0.0 mm 0 W/m2
04:28 9.8 °C 6.3 °C 1022.6 hPa Calm   5.0 km/h 79% 0.0 mm 0 W/m2
04:33 9.8 °C 6.2 °C 1022.2 hPa Calm   9.7 km/h 78% 0.0 mm 0 W/m2
04:38 9.9 °C 6.1 °C 1022.2 hPa WNW 1.1 km/h 9.7 km/h 77% 0.0 mm 0 W/m2
04:43 9.9 °C 6.1 °C 1022.6 hPa Calm   6.1 km/h 77% 0.0 mm 0 W/m2
04:47 9.8 °C 5.9 °C 1022.6 hPa Calm   6.1 km/h 77% 0.0 mm 0 W/m2
04:52 9.7 °C 5.9 °C 1022.6 hPa Calm   2.6 km/h 77% 0.0 mm 0 W/m2
04:58 9.7 °C 5.9 °C 1022.2 hPa Calm   7.2 km/h 77% 0.0 mm 0 W/m2
05:02 9.7 °C 5.9 °C 1022.6 hPa Calm   8.7 km/h 77% 0.0 mm 0 W/m2
05:08 9.7 °C 5.9 °C 1022.6 hPa Calm   8.7 km/h 77% 0.0 mm 0 W/m2
05:13 9.7 °C 6.1 °C 1022.6 hPa Calm   7.2 km/h 78% 0.0 mm 0 W/m2
05:18 9.8 °C 6.2 °C 1022.6 hPa Calm   6.1 km/h 78% 0.0 mm 0 W/m2
05:23 9.7 °C 5.9 °C 1022.6 hPa Calm   7.2 km/h 77% 0.0 mm 0 W/m2
05:28 9.7 °C 5.9 °C 1022.2 hPa Calm   8.7 km/h 77% 0.0 mm 0 W/m2
05:33 9.7 °C 5.9 °C 1022.6 hPa WSW 1.1 km/h 8.7 km/h 77% 0.0 mm 0 W/m2
05:37 9.7 °C 5.9 °C 1022.6 hPa Calm   7.2 km/h 77% 0.0 mm 0 W/m2
05:42 9.7 °C 5.9 °C 1022.2 hPa Calm   6.1 km/h 77% 0.0 mm 0 W/m2
05:48 9.7 °C 5.9 °C 1022.2 hPa Calm   6.1 km/h 77% 0.0 mm 0 W/m2
05:53 9.8 °C 5.9 °C 1022.6 hPa West 5.0 km/h 11.1 km/h 77% 0.0 mm 0 W/m2
05:57 9.9 °C 5.9 °C 1022.6 hPa Calm   11.1 km/h 76% 0.0 mm 0 W/m2
06:02 9.9 °C 5.9 °C 1022.6 hPa Calm   11.1 km/h 76% 0.0 mm 0 W/m2
06:08 9.7 °C 5.7 °C 1022.6 hPa Calm   3.5 km/h 76% 0.0 mm 0 W/m2
06:13 9.5 °C 5.7 °C 1022.6 hPa Calm     77% 0.0 mm 0 W/m2
06:17 9.4 °C 5.6 °C 1022.6 hPa Calm     77% 0.0 mm 0 W/m2
06:23 9.3 °C 5.5 °C 1022.6 hPa Calm     77% 0.0 mm 0 W/m2
06:27 9.1 °C 5.4 °C 1022.6 hPa Calm     78% 0.0 mm 0 W/m2
06:32 9.0 °C 5.6 °C 1022.9 hPa Calm     79% 0.0 mm 0 W/m2
06:38 8.9 °C 5.8 °C 1022.6 hPa Calm     81% 0.0 mm 0 W/m2
06:43 8.9 °C 5.8 °C 1022.9 hPa Calm     81% 0.0 mm 0 W/m2
06:47 8.9 °C 5.8 °C 1022.9 hPa Calm     81% 0.0 mm 0 W/m2
06:52 8.8 °C 5.9 °C 1022.9 hPa Calm     82% 0.0 mm 0 W/m2
06:58 8.8 °C 5.9 °C 1022.9 hPa Calm     82% 0.0 mm 0 W/m2
07:00 8.8 °C 5.9 °C 1022.9 hPa Calm     82% 0.0 mm 0 W/m2
07:05 8.7 °C 5.8 °C 1023.2 hPa Calm     82% 0.0 mm 2 W/m2
07:10 8.7 °C 5.8 °C 1022.9 hPa Calm     82% 0.0 mm 4 W/m2
07:16 8.7 °C 6.0 °C 1023.2 hPa Calm     83% 0.0 mm 6 W/m2
07:21 8.6 °C 5.9 °C 1023.2 hPa Calm     83% 0.0 mm 8 W/m2
07:25 8.5 °C 5.8 °C 1023.2 hPa Calm   2.6 km/h 83% 0.0 mm 12 W/m2
07:30 8.4 °C 5.7 °C 1023.2 hPa Calm   5.0 km/h 83% 0.0 mm 15 W/m2
07:36 8.3 °C 5.6 °C 1023.2 hPa Calm   5.0 km/h 83% 0.0 mm 18 W/m2
07:41 8.4 °C 5.7 °C 1023.2 hPa Calm   5.0 km/h 83% 0.0 mm 21 W/m2
07:45 8.5 °C 5.8 °C 1023.2 hPa Calm   5.0 km/h 83% 0.0 mm 26 W/m2
07:50 8.5 °C 5.8 °C 1023.6 hPa Calm   6.1 km/h 83% 0.0 mm 33 W/m2
07:55 8.6 °C 5.9 °C 1023.6 hPa NW 3.5 km/h 6.1 km/h 83% 0.0 mm 42 W/m2
08:00 8.8 °C 5.9 °C 1023.6 hPa NW 1.1 km/h 8.7 km/h 82% 0.0 mm 50 W/m2
08:06 9.0 °C 5.7 °C 1023.6 hPa Calm   8.7 km/h 80% 0.0 mm 51 W/m2
08:11 9.1 °C 5.7 °C 1023.6 hPa NNW 3.5 km/h 7.2 km/h 79% 0.0 mm 56 W/m2
08:15 9.2 °C 5.6 °C 1023.6 hPa NNW 1.1 km/h 8.7 km/h 78% 0.0 mm 66 W/m2
08:20 9.7 °C 6.2 °C 1023.9 hPa Calm   8.7 km/h 79% 0.0 mm 180 W/m2
08:23 10.0 °C 6.2 °C 1023.9 hPa North 1.1 km/h 8.7 km/h 77% 0.0 mm 190 W/m2
08:27 10.7 °C 6.4 °C 1023.6 hPa North 2.6 km/h 7.2 km/h 75% 0.0 mm 196 W/m2
08:32 10.8 °C 6.2 °C 1023.9 hPa North 3.5 km/h 8.7 km/h 73% 0.0 mm 188 W/m2
08:38 10.8 °C 6.2 °C 1023.9 hPa NNW 1.1 km/h 8.7 km/h 73% 0.0 mm 101 W/m2
08:43 10.5 °C 5.9 °C 1023.9 hPa Calm   9.7 km/h 73% 0.0 mm 106 W/m2
08:47 10.4 °C 5.8 °C 1023.9 hPa Calm   9.7 km/h 73% 0.0 mm 93 W/m2
08:52 10.7 °C 6.3 °C 1024.3 hPa Calm   2.6 km/h 74% 0.0 mm 254 W/m2
08:57 11.3 °C 6.4 °C 1024.3 hPa Calm   2.6 km/h 72% 0.0 mm 269 W/m2
09:02 11.7 °C 6.8 °C 1024.3 hPa Calm   2.6 km/h 72% 0.0 mm 282 W/m2
09:07 11.6 °C 6.1 °C 1024.3 hPa NW 2.6 km/h 9.7 km/h 69% 0.0 mm 292 W/m2
09:13 11.8 °C 6.5 °C 1024.3 hPa NW 5.0 km/h 9.7 km/h 70% 0.0 mm 288 W/m2
09:17 11.9 °C 6.4 °C 1024.3 hPa NW 1.1 km/h 8.7 km/h 69% 0.0 mm 240 W/m2
09:22 11.8 °C 6.3 °C 1024.3 hPa Calm   8.7 km/h 69% 0.0 mm 147 W/m2
09:27 11.5 °C 6.2 °C 1024.3 hPa Calm   7.2 km/h 70% 0.0 mm 160 W/m2
09:32 11.5 °C 6.2 °C 1024.3 hPa Calm   3.5 km/h 70% 0.0 mm 155 W/m2
09:37 11.6 °C 6.3 °C 1024.3 hPa Calm   2.6 km/h 70% 0.0 mm 178 W/m2
09:42 11.8 °C 6.3 °C 1024.3 hPa Calm   6.1 km/h 69% 0.0 mm 180 W/m2
09:47 12.1 °C 6.8 °C 1024.3 hPa Calm   6.1 km/h 70% 0.0 mm 191 W/m2
09:52 12.6 °C 6.8 °C 1024.3 hPa Calm   5.0 km/h 68% 0.0 mm 193 W/m2
09:58 12.7 °C 6.7 °C 1024.3 hPa Calm     67% 0.0 mm 182 W/m2
10:02 12.9 °C 6.7 °C 1024.6 hPa Calm     66% 0.0 mm 190 W/m2
10:07 13.0 °C 7.0 °C 1024.6 hPa West 1.1 km/h 6.1 km/h 67% 0.0 mm 181 W/m2
10:12 12.9 °C 6.7 °C 1024.6 hPa Calm   6.1 km/h 66% 0.0 mm 183 W/m2
10:17 12.6 °C 6.2 °C 1024.6 hPa Calm   6.1 km/h 65% 0.0 mm 189 W/m2
10:22 12.5 °C 6.3 °C 1024.6 hPa Calm     66% 0.0 mm 191 W/m2
10:28 12.8 °C 6.6 °C 1024.6 hPa Calm     66% 0.0 mm 182 W/m2
10:32 12.7 °C 6.5 °C 1024.6 hPa Calm     66% 0.0 mm 189 W/m2
10:37 12.6 °C 6.4 °C 1024.6 hPa Calm     66% 0.0 mm 186 W/m2
10:42 12.5 °C 6.3 °C 1024.6 hPa SW 8.7 km/h 17.2 km/h 66% 0.0 mm 186 W/m2
10:47 12.4 °C 6.0 °C 1024.6 hPa Calm   17.2 km/h 65% 0.0 mm 179 W/m2
10:52 12.4 °C 6.2 °C 1024.6 hPa Calm   13.4 km/h 66% 0.0 mm 137 W/m2
10:57 12.4 °C 6.0 °C 1024.6 hPa Calm   11.1 km/h 65% 0.0 mm 159 W/m2
11:02 12.5 °C 6.1 °C 1024.6 hPa West 3.5 km/h 12.2 km/h 65% 0.0 mm 167 W/m2
11:07 12.5 °C 5.9 °C 1024.6 hPa Calm   14.8 km/h 64% 0.0 mm 143 W/m2
11:12 12.9 °C 6.3 °C 1024.6 hPa WNW 1.1 km/h 14.8 km/h 64% 0.0 mm 211 W/m2
11:17 12.9 °C 6.1 °C 1024.6 hPa WSW 1.1 km/h 15.8 km/h 63% 0.0 mm 236 W/m2
11:22 13.2 °C 6.1 °C 1024.9 hPa WSW 6.1 km/h 18.3 km/h 62% 0.0 mm 378 W/m2
11:27 13.5 °C 6.1 °C 1024.6 hPa SW 9.7 km/h 23.3 km/h 61% 0.0 mm 378 W/m2
11:32 13.7 °C 6.3 °C 1024.9 hPa SW 6.1 km/h 24.5 km/h 61% 0.0 mm 375 W/m2
11:37 13.7 °C 6.1 °C 1024.6 hPa West 3.5 km/h 24.5 km/h 60% 0.0 mm 389 W/m2
11:42 14.0 °C 6.6 °C 1024.9 hPa Calm   19.5 km/h 61% 0.0 mm 379 W/m2
11:47 14.4 °C 6.5 °C 1024.6 hPa WSW 13.4 km/h 20.9 km/h 59% 0.0 mm 383 W/m2
11:52 14.1 °C 6.2 °C 1024.6 hPa WSW 7.2 km/h 20.9 km/h 59% 0.0 mm 374 W/m2
11:57 14.2 °C 6.6 °C 1024.9 hPa WSW 11.1 km/h 20.9 km/h 60% 0.0 mm 368 W/m2
12:02 14.1 °C 5.7 °C 1024.6 hPa SW 14.8 km/h 21.9 km/h 57% 0.0 mm 358 W/m2
12:08 14.0 °C 6.4 °C 1024.6 hPa WSW 8.7 km/h 23.3 km/h 60% 0.0 mm 349 W/m2
12:13 14.2 °C 6.1 °C 1024.3 hPa WSW 13.4 km/h 24.5 km/h 58% 0.0 mm 341 W/m2
12:18 14.0 °C 5.9 °C 1024.6 hPa SW 13.4 km/h 24.5 km/h 58% 0.0 mm 330 W/m2
12:23 14.3 °C 5.9 °C 1024.6 hPa WSW 20.9 km/h 28.0 km/h 57% 0.0 mm 316 W/m2
12:28 14.1 °C 5.7 °C 1024.3 hPa SW 11.1 km/h 28.0 km/h 57% 0.0 mm 298 W/m2
12:33 14.6 °C 6.2 °C 1024.3 hPa SW 15.8 km/h 28.0 km/h 57% 0.0 mm 275 W/m2
12:38 14.2 °C 5.8 °C 1024.3 hPa WSW 12.2 km/h 21.9 km/h 57% 0.0 mm 244 W/m2
12:43 14.4 °C 6.0 °C 1024.3 hPa WSW 7.2 km/h 21.9 km/h 57% 0.0 mm 222 W/m2
12:48 14.2 °C 5.6 °C 1024.3 hPa SW 14.8 km/h 21.9 km/h 56% 0.0 mm 201 W/m2
12:53 14.3 °C 6.2 °C 1024.3 hPa WSW 9.7 km/h 23.3 km/h 58% 0.0 mm 167 W/m2
12:58 14.4 °C 6.5 °C 1024.3 hPa WSW 11.1 km/h 23.3 km/h 59% 0.0 mm 136 W/m2
13:03 14.3 °C 5.9 °C 1023.9 hPa SW 11.1 km/h 23.3 km/h 57% 0.0 mm 120 W/m2
13:08 14.4 °C 5.7 °C 1024.3 hPa SW 9.7 km/h 23.3 km/h 56% 0.0 mm 110 W/m2
13:13 14.5 °C 6.3 °C 1023.9 hPa SW 12.2 km/h 20.9 km/h 58% 0.0 mm 107 W/m2
13:18 14.6 °C 5.9 °C 1023.9 hPa SW 6.1 km/h 19.5 km/h 56% 0.0 mm 98 W/m2
13:23 14.6 °C 5.7 °C 1024.3 hPa WSW 3.5 km/h 19.5 km/h 55% 0.0 mm 78 W/m2
13:28 14.7 °C 5.5 °C 1023.9 hPa WSW 12.2 km/h 21.9 km/h 54% 0.0 mm 65 W/m2
13:33 14.4 °C 5.5 °C 1023.9 hPa SW 9.7 km/h 21.9 km/h 55% 0.0 mm 63 W/m2
13:38 14.3 °C 5.4 °C 1023.9 hPa SW 12.2 km/h 19.5 km/h 55% 0.0 mm 60 W/m2
13:43 14.6 °C 5.7 °C 1023.9 hPa SW 6.1 km/h 19.5 km/h 55% 0.0 mm 59 W/m2
13:48 14.5 °C 5.3 °C 1023.9 hPa SW 7.2 km/h 19.5 km/h 54% 0.0 mm 60 W/m2
13:53 14.8 °C 5.8 °C 1023.9 hPa SW 5.0 km/h 15.8 km/h 55% 0.0 mm 61 W/m2
13:58 14.7 °C 5.8 °C 1023.9 hPa SSW 8.7 km/h 15.8 km/h 55% 0.0 mm 63 W/m2
14:03 15.2 °C 6.2 °C 1023.9 hPa SW 7.2 km/h 14.8 km/h 55% 0.0 mm 64 W/m2
14:08 14.8 °C 5.3 °C 1023.6 hPa SW 7.2 km/h 17.2 km/h 53% 0.0 mm 68 W/m2
14:13 15.1 °C 5.6 °C 1023.9 hPa SW 9.7 km/h 17.2 km/h 53% 0.0 mm 69 W/m2
14:19 15.2 °C 5.9 °C 1023.6 hPa SW 7.2 km/h 17.2 km/h 54% 0.0 mm 72 W/m2
14:25 14.8 °C 5.6 °C 1023.9 hPa SW 5.0 km/h 20.9 km/h 54% 0.0 mm 90 W/m2
14:30 14.8 °C 5.8 °C 1023.6 hPa SW 11.1 km/h 20.9 km/h 55% 0.0 mm 132 W/m2
14:35 14.6 °C 5.9 °C 1023.9 hPa SW 11.1 km/h 18.3 km/h 56% 0.0 mm 183 W/m2
14:40 14.9 °C 6.2 °C 1023.6 hPa SW 13.4 km/h 18.3 km/h 56% 0.0 mm 190 W/m2
14:45 14.6 °C 5.7 °C 1023.6 hPa SW 9.7 km/h 18.3 km/h 55% 0.0 mm 165 W/m2
14:50 14.8 °C 6.6 °C 1023.6 hPa SW 7.2 km/h 18.3 km/h 58% 0.0 mm 192 W/m2
14:55 15.2 °C 6.5 °C 1023.9 hPa SW 2.6 km/h 15.8 km/h 56% 0.0 mm 209 W/m2
15:00 15.2 °C 5.9 °C 1023.9 hPa SW 6.1 km/h 14.8 km/h 54% 0.0 mm 204 W/m2
15:05 15.1 °C 6.1 °C 1023.9 hPa SW 5.0 km/h 14.8 km/h 55% 0.0 mm 199 W/m2
15:10 15.3 °C 6.3 °C 1023.6 hPa SW 3.5 km/h 12.2 km/h 55% 0.0 mm 193 W/m2
15:15 15.2 °C 5.9 °C 1023.9 hPa WSW 3.5 km/h 11.1 km/h 54% 0.0 mm 185 W/m2
15:20 15.1 °C 6.1 °C 1023.6 hPa WSW 2.6 km/h 11.1 km/h 55% 0.0 mm 176 W/m2
15:25 15.1 °C 6.1 °C 1023.9 hPa Calm   11.1 km/h 55% 0.0 mm 163 W/m2
15:30 15.3 °C 6.6 °C 1023.9 hPa WSW 3.5 km/h 11.1 km/h 56% 0.0 mm 153 W/m2
15:35 15.1 °C 6.1 °C 1023.9 hPa Calm   7.2 km/h 55% 0.0 mm 143 W/m2
15:40 14.9 °C 6.7 °C 1023.9 hPa West 2.6 km/h 8.7 km/h 58% 0.0 mm 129 W/m2
15:45 14.9 °C 6.7 °C 1023.9 hPa West 5.0 km/h 8.7 km/h 58% 0.0 mm 117 W/m2
15:50 15.0 °C 6.8 °C 1023.9 hPa West 1.1 km/h 8.7 km/h 58% 0.0 mm 102 W/m2
15:55 15.1 °C 6.9 °C 1023.9 hPa Calm   8.7 km/h 58% 0.0 mm 88 W/m2
16:00 15.0 °C 6.8 °C 1023.9 hPa Calm   6.1 km/h 58% 0.0 mm 68 W/m2
16:05 15.3 °C 7.1 °C 1023.9 hPa Calm   3.5 km/h 58% 0.0 mm 58 W/m2
16:22 15.1 °C 7.2 °C 1024.3 hPa Calm     59% 0.0 mm 39 W/m2
16:27 15.0 °C 7.6 °C 1024.3 hPa Calm   5.0 km/h 61% 0.0 mm 39 W/m2
16:32 15.4 °C 7.7 °C 1024.3 hPa Calm   5.0 km/h 60% 0.0 mm 40 W/m2
16:37 15.6 °C 7.9 °C 1024.3 hPa Calm     60% 0.0 mm 36 W/m2
16:42 15.7 °C 7.7 °C 1024.3 hPa Calm     59% 0.0 mm 30 W/m2
16:47 15.5 °C 7.6 °C 1024.3 hPa Calm     59% 0.0 mm 19 W/m2
16:52 14.4 °C 7.0 °C 1024.3 hPa Calm     61% 0.0 mm 14 W/m2
16:57 13.4 °C 6.9 °C 1024.3 hPa Calm     65% 0.0 mm 9 W/m2
17:02 12.5 °C 6.3 °C 1024.3 hPa Calm     66% 0.0 mm 6 W/m2
17:07 11.8 °C 6.3 °C 1024.3 hPa Calm     69% 0.0 mm 3 W/m2
17:12 11.4 °C 6.3 °C 1024.3 hPa Calm     71% 0.0 mm 1 W/m2
17:17 11.1 °C 6.2 °C 1024.3 hPa Calm     72% 0.0 mm 0 W/m2
17:22 10.9 °C 6.4 °C 1024.3 hPa Calm     74% 0.0 mm 0 W/m2
17:27 10.6 °C 6.6 °C 1024.3 hPa Calm     76% 0.0 mm 0 W/m2
17:32 10.3 °C 6.6 °C 1024.3 hPa Calm     78% 0.0 mm 0 W/m2
17:37 10.1 °C 6.6 °C 1024.3 hPa Calm     79% 0.0 mm 0 W/m2
17:42 9.9 °C 6.8 °C 1024.3 hPa Calm     81% 0.0 mm 0 W/m2
17:47 9.6 °C 6.8 °C 1024.3 hPa Calm     83% 0.0 mm 0 W/m2
17:52 9.4 °C 6.8 °C 1024.6 hPa Calm     84% 0.0 mm 0 W/m2
17:57 9.2 °C 6.8 °C 1024.3 hPa Calm     85% 0.0 mm 0 W/m2
18:03 9.1 °C 6.7 °C 1024.6 hPa Calm     85% 0.0 mm 0 W/m2
18:08 8.9 °C 6.8 °C 1024.3 hPa Calm     87% 0.0 mm 0 W/m2
18:13 8.7 °C 6.7 °C 1024.3 hPa Calm     87% 0.0 mm 0 W/m2
18:18 8.4 °C 6.4 °C 1024.6 hPa Calm     87% 0.0 mm 0 W/m2
18:23 8.3 °C 6.4 °C 1024.6 hPa Calm     88% 0.0 mm 0 W/m2
18:28 8.2 °C 6.3 °C 1024.6 hPa Calm     88% 0.0 mm 0 W/m2
18:33 8.1 °C 6.4 °C 1024.6 hPa Calm     89% 0.0 mm 0 W/m2
18:38 8.0 °C 6.4 °C 1024.6 hPa Calm     90% 0.0 mm 0 W/m2
18:43 7.9 °C 6.5 °C 1024.6 hPa Calm     91% 0.0 mm 0 W/m2
18:48 7.7 °C 6.5 °C 1024.6 hPa Calm     92% 0.0 mm 0 W/m2
18:53 7.6 °C 6.4 °C 1024.6 hPa Calm     92% 0.0 mm 0 W/m2
18:58 7.5 °C 6.3 °C 1024.6 hPa Calm     92% 0.0 mm 0 W/m2
19:03 7.4 °C 6.3 °C 1024.6 hPa Calm   2.6 km/h 93% 0.0 mm 0 W/m2
19:08 7.3 °C 6.2 °C 1024.9 hPa Calm   2.6 km/h 93% 0.0 mm 0 W/m2
19:13 7.3 °C 6.2 °C 1024.9 hPa Calm   2.6 km/h 93% 0.0 mm 0 W/m2
19:18 7.2 °C 6.3 °C 1024.9 hPa Calm   1.1 km/h 94% 0.0 mm 0 W/m2
19:23 7.2 °C 6.3 °C 1024.9 hPa Calm     94% 0.0 mm 0 W/m2
19:28 7.2 °C 6.3 °C 1024.6 hPa Calm     94% 0.0 mm 0 W/m2
19:33 7.2 °C 6.4 °C 1024.6 hPa Calm     95% 0.0 mm 0 W/m2
19:38 7.3 °C 6.6 °C 1024.6 hPa Calm     95% 0.0 mm 0 W/m2
19:43 7.3 °C 6.6 °C 1024.6 hPa Calm     95% 0.0 mm 0 W/m2
19:48 7.3 °C 6.6 °C 1024.6 hPa Calm     95% 0.0 mm 0 W/m2
19:53 7.2 °C 6.4 °C 1024.6 hPa Calm     95% 0.0 mm 0 W/m2
19:58 7.2 °C 6.4 °C 1024.6 hPa Calm     95% 0.0 mm 0 W/m2
20:03 7.2 °C 6.4 °C 1024.6 hPa Calm     95% 0.0 mm 0 W/m2
20:08 7.1 °C 6.3 °C 1024.6 hPa Calm     95% 0.0 mm 0 W/m2
20:13 7.0 °C 6.3 °C 1024.9 hPa Calm     95% 0.0 mm 0 W/m2
20:18 6.9 °C 6.3 °C 1024.9 hPa Calm     96% 0.0 mm 0 W/m2
20:23 6.9 °C 6.3 °C 1024.9 hPa Calm     96% 0.0 mm 0 W/m2
20:28 6.8 °C 6.2 °C 1024.9 hPa Calm     96% 0.0 mm 0 W/m2
20:33 6.8 °C 6.2 °C 1024.9 hPa Calm     96% 0.0 mm 0 W/m2
20:38 6.7 °C 6.1 °C 1024.9 hPa Calm     96% 0.0 mm 0 W/m2
20:43 6.7 °C 6.3 °C 1024.9 hPa NNW 3.5 km/h 7.2 km/h 97% 0.0 mm 0 W/m2
20:48 6.7 °C 6.3 °C 1024.9 hPa NW 2.6 km/h 7.2 km/h 97% 0.0 mm 0 W/m2
20:53 6.8 °C 6.3 °C 1024.9 hPa NW 2.6 km/h 7.2 km/h 97% 0.0 mm 0 W/m2
20:58 6.9 °C 6.4 °C 1025.3 hPa NNW 2.6 km/h 8.7 km/h 97% 0.0 mm 0 W/m2
21:03 6.8 °C 6.5 °C 1025.3 hPa NNW 6.1 km/h 8.7 km/h 98% 0.0 mm 0 W/m2
21:08 6.8 °C 6.3 °C 1024.9 hPa NNW 3.5 km/h 8.7 km/h 97% 0.0 mm 0 W/m2
21:13 6.8 °C 6.3 °C 1024.9 hPa NNW 5.0 km/h 8.7 km/h 97% 0.0 mm 0 W/m2
21:18 6.8 °C 6.3 °C 1024.9 hPa NNW 5.0 km/h 9.7 km/h 97% 0.0 mm 0 W/m2
21:23 6.7 °C 6.3 °C 1024.9 hPa NNW 7.2 km/h 9.7 km/h 97% 0.0 mm 0 W/m2
21:28 6.7 °C 6.3 °C 1024.9 hPa Calm   9.7 km/h 97% 0.0 mm 0 W/m2
21:33 6.7 °C 6.3 °C 1024.9 hPa NNW 6.1 km/h 9.7 km/h 97% 0.0 mm 0 W/m2
21:38 6.7 °C 6.3 °C 1024.9 hPa NNW 6.1 km/h 12.2 km/h 97% 0.0 mm 0 W/m2
21:43 6.6 °C 6.3 °C 1024.9 hPa NNW 5.0 km/h 12.2 km/h 98% 0.0 mm 0 W/m2
21:48 6.6 °C 6.2 °C 1025.3 hPa NNW 6.1 km/h 12.2 km/h 97% 0.0 mm 0 W/m2
21:53 6.5 °C 6.1 °C 1024.9 hPa NW 5.0 km/h 8.7 km/h 97% 0.0 mm 0 W/m2
21:58 6.5 °C 6.1 °C 1024.9 hPa NNW 3.5 km/h 11.1 km/h 97% 0.0 mm 0 W/m2
22:03 6.4 °C 6.1 °C 1024.9 hPa NNW 3.5 km/h 11.1 km/h 98% 0.0 mm 0 W/m2
22:08 6.3 °C 6.0 °C 1024.9 hPa NNW 5.0 km/h 8.7 km/h 98% 0.0 mm 0 W/m2
22:13 6.2 °C 5.9 °C 1024.9 hPa NNW 3.5 km/h 8.7 km/h 98% 0.0 mm 0 W/m2
22:18 6.2 °C 5.9 °C 1024.9 hPa NNW 5.0 km/h 8.7 km/h 98% 0.0 mm 0 W/m2
22:23 6.3 °C 6.0 °C 1024.9 hPa NNW 5.0 km/h 9.7 km/h 98% 0.0 mm 0 W/m2
22:28 6.2 °C 5.9 °C 1024.9 hPa NNW 3.5 km/h 9.7 km/h 98% 0.0 mm 0 W/m2
22:33 6.2 °C 5.9 °C 1024.9 hPa NNW 3.5 km/h 7.2 km/h 98% 0.0 mm 0 W/m2
22:38 6.2 °C 5.9 °C 1024.9 hPa NNW 3.5 km/h 8.7 km/h 98% 0.0 mm 0 W/m2
22:43 6.1 °C 5.8 °C 1024.9 hPa NNW 2.6 km/h 8.7 km/h 98% 0.0 mm 0 W/m2
22:48 6.1 °C 5.8 °C 1024.9 hPa NNW 2.6 km/h 7.2 km/h 98% 0.0 mm 0 W/m2
22:53 6.0 °C 5.7 °C 1024.9 hPa NW 1.1 km/h 7.2 km/h 98% 0.0 mm 0 W/m2
22:58 5.9 °C 5.8 °C 1025.3 hPa NW 2.6 km/h 7.2 km/h 99% 0.0 mm 0 W/m2
23:03 5.9 °C 5.8 °C 1024.9 hPa Calm   7.2 km/h 99% 0.0 mm 0 W/m2
23:08 5.9 °C 5.8 °C 1024.9 hPa Calm   6.1 km/h 99% 0.0 mm 0 W/m2
23:15 5.9 °C 5.8 °C 1025.3 hPa Calm     99% 0.0 mm 0 W/m2
23:20 5.9 °C 5.8 °C 1025.3 hPa Calm     99% 0.0 mm 0 W/m2
23:25 5.8 °C 5.7 °C 1025.3 hPa Calm     99% 0.0 mm 0 W/m2
23:30 5.8 °C 5.7 °C 1025.6 hPa Calm     99% 0.0 mm 0 W/m2
23:35 5.8 °C 5.7 °C 1025.3 hPa Calm     99% 0.0 mm 0 W/m2
23:40 5.7 °C 5.6 °C 1025.6 hPa Calm     99% 0.0 mm 0 W/m2
23:45 5.6 °C 5.4 °C 1025.6 hPa Calm     99% 0.0 mm 0 W/m2
23:50 5.6 °C 5.4 °C 1025.3 hPa Calm     99% 0.0 mm 0 W/m2
23:55 5.6 °C 5.4 °C 1025.3 hPa Calm     99% 0.0 mm 0 W/m2
Northern Hawkes Bay. New Zealand Historic Data
Compliments of Weather Underground - 2 mb